Time;durP1;ratioP1;P1;durP2;ratioP2;P2;SDS_P1;SDS_P2;PMS_P1;PMS_P2;Temp;Humidity;BMP_temperature;BMP_pressure;BME280_temperature;BME280_humidity;BME280_pressure;Samples;Min_cycle;Max_cycle;Signal;HPM_P1;HPM_P2
2022/10/21 00:02:02;;;;;;;3.75;3.10;;;;;;;4.77;56.90;100173.44;5034916;28;20336;-60
2022/10/21 00:04:28;;;;;;;5.07;3.00;;;;;;;4.78;57.46;100171.63;5034797;28;20041;-61
2022/10/21 00:06:53;;;;;;;3.88;3.28;;;;;;;4.82;57.05;100178.47;5033865;28;20187;-58
2022/10/21 00:09:18;;;;;;;6.72;3.13;;;;;;;4.79;56.94;100162.72;5035297;28;20120;-59
2022/10/21 00:11:44;;;;;;;5.10;2.83;;;;;;;4.85;57.35;100165.91;5034603;28;20483;-61
2022/10/21 00:14:09;;;;;;;3.92;3.08;;;;;;;4.84;57.09;100160.72;5034589;28;20069;-62
2022/10/21 00:16:35;;;;;;;3.22;2.92;;;;;;;4.82;57.33;100162.56;5033789;28;20034;-58
2022/10/21 00:19:00;;;;;;;4.03;2.75;;;;;;;4.73;57.88;100145.34;5041597;28;20098;-58
2022/10/21 00:21:26;;;;;;;3.00;2.70;;;;;;;4.77;57.35;100154.84;5069826;28;20033;-58
2022/10/21 00:23:51;;;;;;;2.90;2.63;;;;;;;4.80;57.63;100152.03;5054563;28;20178;-59
2022/10/21 00:26:17;;;;;;;3.10;2.80;;;;;;;4.81;58.44;100160.84;5051856;28;20055;-59
2022/10/21 00:28:43;;;;;;;3.97;2.72;;;;;;;4.77;57.49;100148.69;5052838;28;20044;-61
2022/10/21 00:31:11;;;;;;;2.67;2.45;;;;;;;4.64;57.65;100116.63;5055020;28;20108;-60
2022/10/21 00:33:37;;;;;;;3.42;3.00;;;;;;;4.76;57.80;100131.91;5055089;28;20029;-58
2022/10/21 00:36:05;;;;;;;4.50;3.20;;;;;;;4.85;57.77;100146.50;5054028;28;20446;-59
2022/10/21 00:38:32;;;;;;;6.30;3.17;;;;;;;4.83;57.92;100138.63;5051392;28;20560;-59
2022/10/21 00:40:58;;;;;;;8.18;3.88;;;;;;;4.67;57.67;100098.78;5034185;28;20053;-60
2022/10/21 00:43:24;;;;;;;5.72;3.50;;;;;;;4.90;57.08;100133.84;5034187;28;20119;-62
2022/10/21 00:45:55;;;;;;;4.60;3.50;;;;;;;4.94;57.22;100127.44;5051254;28;20067;-60
2022/10/21 00:48:32;;;;;;;4.07;3.55;;;;;;;4.96;57.92;100120.25;5035209;28;20034;-60
2022/10/21 00:51:11;;;;;;;6.40;3.20;;;;;;;4.95;57.62;100118.53;5059143;28;20037;-59
2022/10/21 00:53:40;;;;;;;5.05;3.10;;;;;;;4.93;57.71;100128.38;5033463;28;20029;-59
2022/10/21 00:56:11;;;;;;;5.82;3.08;;;;;;;4.82;57.37;100125.41;5033403;28;20036;-59
2022/10/21 00:58:36;;;;;;;4.22;3.00;;;;;;;4.65;58.86;100134.25;5043435;28;20099;-57
2022/10/21 01:01:06;;;;;;;5.40;3.42;;;;;;;4.62;58.49;100139.72;5034092;28;20447;-61
2022/10/21 01:03:33;;;;;;;4.22;3.15;;;;;;;4.57;58.64;100135.50;5033907;28;20132;-59
2022/10/21 01:06:02;;;;;;;3.88;3.15;;;;;;;4.59;58.16;100136.28;5033222;28;20099;-60
2022/10/21 01:08:28;;;;;;;4.45;3.17;;;;;;;4.50;58.45;100131.47;5034879;28;20379;-60
2022/10/21 01:10:54;;;;;;;5.40;3.15;;;;;;;4.29;59.19;100109.50;5053412;28;20048;-60
2022/10/21 01:13:41;;;;;;;4.43;2.90;;;;;;;4.47;58.89;100139.56;5044088;28;20406;-59
2022/10/21 01:16:24;;;;;;;5.05;3.20;;;;;;;4.54;58.80;100142.75;5016428;28;20061;-60
2022/10/21 01:19:08;;;;;;;3.78;3.10;;;;;;;4.49;58.09;100144.78;5037071;28;20462;-56
2022/10/21 01:21:40;;;;;;;2.85;2.55;;;;;;;4.54;58.70;100143.63;5053349;28;20075;-59
2022/10/21 01:24:15;;;;;;;4.70;2.83;;;;;;;4.57;58.68;100139.94;5053408;28;20044;-62
2022/10/21 01:26:59;;;;;;;5.43;3.08;;;;;;;4.53;58.62;100138.38;5052100;28;20475;-58
2022/10/21 01:29:45;;;;;;;6.15;3.00;;;;;;;4.56;58.95;100141.75;5040988;28;20034;-59
2022/10/21 01:32:29;;;;;;;5.28;2.72;;;;;;;4.63;59.40;100137.00;5033513;28;20076;-61
2022/10/21 01:35:02;;;;;;;4.15;2.75;;;;;;;4.56;58.47;100135.56;5033226;28;20436;-63
2022/10/21 01:37:47;;;;;;;4.00;2.83;;;;;;;4.60;58.51;100132.69;5033334;28;20040;-63
2022/10/21 01:40:19;;;;;;;2.85;2.55;;;;;;;4.61;58.48;100138.88;5052042;28;20523;-62
2022/10/21 01:42:51;;;;;;;3.92;2.60;;;;;;;4.58;58.62;100139.00;5051798;28;20411;-64
2022/10/21 01:45:25;;;;;;;2.88;2.42;;;;;;;4.59;58.84;100133.63;5052631;28;20049;-62
2022/10/21 01:47:59;;;;;;;5.10;2.67;;;;;;;4.59;59.11;100136.28;5052722;28;20048;-63
2022/10/21 01:50:27;;;;;;;2.55;2.35;;;;;;;4.55;59.29;100144.47;5032953;28;20042;-59
2022/10/21 01:53:04;;;;;;;6.30;2.53;;;;;;;4.58;59.26;100145.19;5032859;28;20044;-61
2022/10/21 01:55:31;;;;;;;4.55;2.55;;;;;;;4.56;59.16;100140.88;5032804;28;20033;-62
2022/10/21 01:58:05;;;;;;;3.75;2.28;;;;;;;4.55;59.28;100140.03;5032842;28;20029;-62
2022/10/21 02:00:34;;;;;;;4.15;2.67;;;;;;;4.49;59.33;100140.34;5050141;28;20212;-60
2022/10/21 02:03:03;;;;;;;5.28;2.60;;;;;;;4.46;59.25;100143.13;5052482;28;20029;-60
2022/10/21 02:05:31;;;;;;;4.70;2.70;;;;;;;4.35;59.26;100117.19;5043435;28;20056;-59
2022/10/21 02:07:57;;;;;;;4.35;2.40;;;;;;;4.43;59.94;100136.22;5032153;28;20387;-61
2022/10/21 02:10:26;;;;;;;6.00;2.35;;;;;;;4.37;59.70;100119.75;5044345;28;20040;-60
2022/10/21 02:12:55;;;;;;;6.18;2.53;;;;;;;4.41;60.02;100132.78;5051389;28;20028;-62
2022/10/21 02:15:42;;;;;;;6.40;2.72;;;;;;;4.45;59.98;100149.38;5045829;28;20037;-61
2022/10/21 02:18:18;;;;;;;5.00;2.60;;;;;;;4.39;59.70;100133.78;5032468;28;20044;-61
2022/10/21 02:20:44;;;;;;;6.68;2.80;;;;;;;4.37;59.76;100146.25;5032900;28;20072;-62
2022/10/21 02:23:14;;;;;;;3.70;2.60;;;;;;;4.37;59.98;100144.47;5032481;28;20044;-61
2022/10/21 02:25:43;;;;;;;6.13;2.55;;;;;;;4.35;60.34;100143.69;5032631;28;20045;-61
2022/10/21 02:28:10;;;;;;;7.10;2.65;;;;;;;4.34;60.41;100143.75;5032772;28;20037;-62
2022/10/21 02:30:48;;;;;;;3.92;2.30;;;;;;;4.28;60.01;100134.31;5033040;28;20032;-60
2022/10/21 02:33:22;;;;;;;7.72;2.70;;;;;;;4.36;60.71;100166.63;5036311;28;20125;-62
2022/10/21 02:36:26;;;;;;;4.18;2.70;;;;;;;4.38;60.63;100170.03;5036892;28;20029;-63
2022/10/21 02:39:08;;;;;;;4.72;2.63;;;;;;;4.37;60.65;100168.34;5023051;28;20053;-65
2022/10/21 02:41:37;;;;;;;5.88;2.47;;;;;;;4.32;60.51;100167.69;5036369;28;20057;-60
2022/10/21 02:44:03;;;;;;;4.57;2.47;;;;;;;4.24;60.91;100146.00;5049038;28;20048;-63
2022/10/21 02:46:38;;;;;;;5.57;2.70;;;;;;;4.35;61.23;100164.91;5056027;28;20494;-61
2022/10/21 02:49:04;;;;;;;5.78;2.72;;;;;;;4.30;60.69;100156.28;5051983;28;20029;-60
2022/10/21 02:51:30;;;;;;;5.05;3.00;;;;;;;4.30;60.95;100156.28;5036379;28;20044;-57
2022/10/21 02:53:56;;;;;;;4.13;2.85;;;;;;;4.27;61.40;100161.75;5036266;28;20025;-58
2022/10/21 02:56:21;;;;;;;5.05;2.72;;;;;;;4.33;61.12;100155.28;5035026;28;20447;-58
2022/10/21 02:58:47;;;;;;;3.72;2.70;;;;;;;4.17;61.25;100126.88;5037785;28;20060;-57
2022/10/21 03:01:12;;;;;;;3.95;2.78;;;;;;;4.33;61.31;100153.47;5055092;28;20036;-62
2022/10/21 03:03:38;;;;;;;5.78;2.83;;;;;;;4.36;61.53;100145.41;5056023;28;20055;-57
2022/10/21 03:06:03;;;;;;;5.55;3.40;;;;;;;4.33;61.77;100145.53;5046070;28;20029;-56
2022/10/21 03:08:28;;;;;;;4.78;2.90;;;;;;;4.36;61.51;100145.41;5036282;28;20363;-61
2022/10/21 03:10:54;;;;;;;3.17;2.53;;;;;;;4.39;61.35;100144.38;5055989;28;20076;-63
2022/10/21 03:13:20;;;;;;;4.75;3.00;;;;;;;4.00;61.32;100077.38;5055907;28;20455;-66
2022/10/21 03:15:50;;;;;;;5.68;2.97;;;;;;;4.34;61.04;100131.38;5056079;28;20033;-61
2022/10/21 03:18:16;;;;;;;5.03;3.05;;;;;;;4.40;61.29;100144.31;5056094;28;20060;-61
2022/10/21 03:20:41;;;;;;;4.07;3.00;;;;;;;4.40;61.51;100140.78;5037855;28;20071;-61
2022/10/21 03:23:07;;;;;;;3.33;3.03;;;;;;;4.39;61.67;100149.69;5035750;28;20065;-62
2022/10/21 03:25:32;;;;;;;4.55;3.13;;;;;;;4.34;61.86;100135.81;5018379;28;20375;-61
2022/10/21 03:27:58;;;;;;;5.00;3.05;;;;;;;4.36;61.78;100140.09;5034742;28;20029;-62
2022/10/21 03:30:23;;;;;;;4.07;2.75;;;;;;;4.36;61.75;100133.94;5034728;28;20041;-60
2022/10/21 03:32:49;;;;;;;4.40;3.00;;;;;;;4.33;62.46;100142.03;5051611;28;20033;-57
2022/10/21 03:35:14;;;;;;;5.72;3.28;;;;;;;4.31;62.55;100148.28;5035319;28;20406;-59
2022/10/21 03:37:40;;;;;;;3.97;3.10;;;;;;;4.28;62.46;100153.72;5035072;28;20187;-60
2022/10/21 03:40:06;;;;;;;6.30;3.00;;;;;;;4.19;62.98;100148.03;5054534;28;20176;-60
2022/10/21 03:42:31;;;;;;;6.78;3.40;;;;;;;4.11;63.04;100154.56;5052968;28;20053;-62
2022/10/21 03:44:57;;;;;;;4.65;3.22;;;;;;;4.07;63.64;100146.81;5035419;28;20128;-60
2022/10/21 03:47:22;;;;;;;3.90;2.78;;;;;;;4.05;63.47;100146.03;5035336;28;20076;-62
2022/10/21 03:49:48;;;;;;;3.92;3.05;;;;;;;4.13;63.80;100150.03;5035486;28;20030;-59
2022/10/21 03:52:13;;;;;;;6.15;3.00;;;;;;;4.15;63.76;100158.78;5034976;28;20356;-60
2022/10/21 03:54:39;;;;;;;5.40;3.00;;;;;;;4.16;63.98;100155.19;5034907;28;20479;-60
2022/10/21 03:57:04;;;;;;;5.50;2.70;;;;;;;4.18;63.63;100146.31;5035075;28;20577;-60
2022/10/21 03:59:30;;;;;;;4.57;2.90;;;;;;;4.21;63.60;100151.44;5042659;28;20029;-58
2022/10/21 04:01:55;;;;;;;2.78;2.45;;;;;;;4.20;63.53;100158.53;5048658;28;20363;-62
2022/10/21 04:04:21;;;;;;;7.15;3.53;;;;;;;4.21;63.35;100162.91;5035051;28;20505;-59
2022/10/21 04:06:46;;;;;;;5.80;3.25;;;;;;;4.23;63.78;100157.53;5033968;28;20051;-61
2022/10/21 04:09:11;;;;;;;4.90;3.10;;;;;;;4.27;63.77;100159.97;5034832;28;20781;-57
2022/10/21 04:11:37;;;;;;;5.78;3.28;;;;;;;4.29;63.39;100159.88;5035543;28;20447;-61
2022/10/21 04:14:02;;;;;;;6.35;3.08;;;;;;;4.33;64.03;100164.09;5069745;28;20436;-60
2022/10/21 04:16:28;;;;;;;5.40;3.13;;;;;;;4.15;63.52;100137.56;5054596;28;20391;-57
2022/10/21 04:18:53;;;;;;;5.70;3.30;;;;;;;4.37;63.22;100173.63;5054568;28;20060;-56
2022/10/21 04:21:19;;;;;;;6.15;3.17;;;;;;;4.40;62.94;100178.78;5054896;28;20029;-60
2022/10/21 04:23:44;;;;;;;6.63;3.08;;;;;;;4.38;63.06;100154.13;5048966;28;20033;-60
2022/10/21 04:26:10;;;;;;;5.95;2.72;;;;;;;4.44;63.03;100171.50;5054404;28;20370;-60
2022/10/21 04:28:36;;;;;;;6.10;3.00;;;;;;;4.39;62.86;100157.63;5052617;28;20183;-59
2022/10/21 04:31:02;;;;;;;6.78;3.10;;;;;;;4.45;63.10;100176.75;5053316;28;20033;-61
2022/10/21 04:33:27;;;;;;;5.25;3.05;;;;;;;4.45;63.38;100171.44;5053551;28;20111;-55
2022/10/21 04:35:53;;;;;;;8.88;3.50;;;;;;;4.47;62.89;100178.47;5054457;28;20052;-55
2022/10/21 04:38:20;;;;;;;5.43;3.10;;;;;;;4.49;62.93;100177.47;5041871;28;20033;-57
2022/10/21 04:40:45;;;;;;;3.25;2.90;;;;;;;4.50;63.86;100183.63;5033613;28;20448;-54
2022/10/21 04:43:11;;;;;;;4.95;3.33;;;;;;;4.50;63.65;100173.88;5039250;28;20064;-57
2022/10/21 04:45:39;;;;;;;5.38;3.30;;;;;;;4.56;63.61;100167.41;5069505;28;20359;-56
2022/10/21 04:48:05;;;;;;;5.60;3.50;;;;;;;4.50;63.63;100154.44;5054237;28;20037;-55
2022/10/21 04:50:33;;;;;;;3.75;2.80;;;;;;;4.55;64.33;100170.97;5053815;28;20332;-54
2022/10/21 04:52:59;;;;;;;5.55;3.03;;;;;;;4.52;63.88;100158.75;5035338;28;20280;-55
2022/10/21 04:55:24;;;;;;;7.75;3.53;;;;;;;4.56;63.78;100167.41;5045516;28;20036;-63
2022/10/21 04:57:50;;;;;;;5.72;3.30;;;;;;;4.62;64.52;100169.75;5050030;28;20029;-61
2022/10/21 05:00:15;;;;;;;7.40;3.38;;;;;;;4.60;63.94;100166.31;5033768;28;20068;-60
2022/10/21 05:02:41;;;;;;;6.03;2.80;;;;;;;4.66;64.31;100168.66;5036365;28;20073;-61
2022/10/21 05:05:07;;;;;;;8.02;3.92;;;;;;;4.71;64.13;100176.41;5053845;28;20305;-59
2022/10/21 05:07:32;;;;;;;7.28;3.35;;;;;;;4.54;63.96;100148.06;5053584;28;20028;-60
2022/10/21 05:09:58;;;;;;;10.02;3.03;;;;;;;4.72;64.65;100172.81;5053559;28;20125;-59
2022/10/21 05:12:23;;;;;;;7.68;3.28;;;;;;;4.74;64.09;100170.94;5053032;28;20458;-63
2022/10/21 05:14:48;;;;;;;5.22;3.20;;;;;;;4.53;64.21;100136.59;5050857;28;20074;-61
2022/10/21 05:17:14;;;;;;;5.38;3.35;;;;;;;4.80;63.96;100173.25;5033505;28;20104;-60
2022/10/21 05:19:39;;;;;;;5.53;3.30;;;;;;;4.74;63.98;100155.03;5049270;28;20506;-60
2022/10/21 05:22:05;;;;;;;4.78;3.50;;;;;;;4.80;64.03;100170.63;5032375;28;20029;-61
2022/10/21 05:24:30;;;;;;;5.20;3.20;;;;;;;4.79;63.71;100157.41;5035032;28;20030;-59
2022/10/21 05:26:55;;;;;;;5.97;3.20;;;;;;;4.87;63.76;100171.16;5053776;28;20060;-60
2022/10/21 05:29:21;;;;;;;4.97;3.28;;;;;;;4.94;63.68;100175.22;5053423;28;20037;-59
2022/10/21 05:31:46;;;;;;;6.57;3.40;;;;;;;4.95;63.64;100174.28;5053027;28;20089;-61
2022/10/21 05:34:12;;;;;;;6.38;3.15;;;;;;;5.00;63.73;100187.31;5049579;28;20068;-57
2022/10/21 05:36:37;;;;;;;8.38;3.50;;;;;;;4.85;63.37;100147.34;5033042;28;20503;-58
2022/10/21 05:39:03;;;;;;;6.53;3.17;;;;;;;5.08;63.47;100194.88;5032939;28;20029;-59
2022/10/21 05:41:28;;;;;;;5.22;3.08;;;;;;;5.13;63.55;100190.19;5032895;28;20057;-59
2022/10/21 05:43:54;;;;;;;7.10;2.80;;;;;;;5.20;63.01;100199.53;5044727;28;20368;-60
2022/10/21 05:46:19;;;;;;;8.13;3.15;;;;;;;5.26;62.90;100203.66;5052880;28;20057;-59
2022/10/21 05:48:45;;;;;;;4.40;3.05;;;;;;;5.28;63.09;100210.59;5053008;28;20036;-61
2022/10/21 05:51:10;;;;;;;7.45;3.40;;;;;;;5.31;62.87;100207.81;5038712;28;20075;-61
2022/10/21 05:53:35;;;;;;;8.07;3.85;;;;;;;5.17;63.14;100168.69;5042214;28;20074;-58
2022/10/21 05:56:04;;;;;;;8.07;3.83;;;;;;;5.43;62.66;100210.75;5032625;28;20477;-60
2022/10/21 05:58:31;;;;;;;6.95;3.60;;;;;;;5.49;62.36;100204.25;5031688;28;20436;-61
2022/10/21 06:00:57;;;;;;;8.95;3.60;;;;;;;5.52;62.53;100206.75;5032836;28;20317;-59
2022/10/21 06:03:28;;;;;;;9.07;3.60;;;;;;;5.60;62.12;100202.75;5032936;28;20033;-62
2022/10/21 06:05:57;;;;;;;6.18;3.20;;;;;;;5.66;61.96;100217.47;5032754;28;20159;-61
2022/10/21 06:08:23;;;;;;;9.23;3.35;;;;;;;5.73;61.76;100215.34;5032442;28;20028;-61
2022/10/21 06:10:48;;;;;;;6.65;3.80;;;;;;;5.73;61.33;100213.56;5037616;28;20033;-60
2022/10/21 06:13:14;;;;;;;6.45;3.58;;;;;;;5.77;61.93;100218.69;5031680;28;20033;-60
2022/10/21 06:15:39;;;;;;;6.20;3.90;;;;;;;5.80;61.76;100222.06;5032607;28;20099;-61
2022/10/21 06:18:05;;;;;;;5.75;3.20;;;;;;;5.88;61.51;100217.19;5032526;28;20044;-60
2022/10/21 06:20:30;;;;;;;9.15;3.55;;;;;;;5.88;61.35;100217.19;5032617;28;20387;-59
2022/10/21 06:22:58;;;;;;;6.53;3.40;;;;;;;6.05;61.31;100223.41;5035380;28;20052;-59
2022/10/21 06:25:24;;;;;;;5.85;3.58;;;;;;;6.08;61.08;100223.22;5033839;28;20407;-60
2022/10/21 06:27:50;;;;;;;6.60;3.95;;;;;;;6.17;61.04;100220.03;5027133;28;20091;-59
2022/10/21 06:30:16;;;;;;;5.00;3.40;;;;;;;6.27;60.62;100227.50;5047593;28;20042;-61
2022/10/21 06:32:41;;;;;;;10.30;3.65;;;;;;;6.35;60.03;100219.97;5031995;28;20040;-60
2022/10/21 06:35:07;;;;;;;9.18;3.92;;;;;;;6.44;60.45;100213.25;5052452;28;20100;-59
2022/10/21 06:37:32;;;;;;;9.52;3.97;;;;;;;6.54;60.17;100210.94;5067870;28;20115;-58
2022/10/21 06:39:58;;;;;;;5.10;3.85;;;;;;;6.69;59.97;100214.50;5050409;28;20192;-58
2022/10/21 06:42:23;;;;;;;9.30;3.88;;;;;;;6.72;59.67;100180.56;5033284;28;20053;-56
2022/10/21 06:44:49;;;;;;;8.13;4.20;;;;;;;7.01;59.44;100201.09;5052249;28;20452;-60
2022/10/21 06:47:15;;;;;;;6.40;4.00;;;;;;;7.00;59.54;100210.03;5052077;28;20033;-60
2022/10/21 06:49:41;;;;;;;8.18;4.03;;;;;;;7.03;59.83;100216.03;5052228;28;20036;-59
2022/10/21 06:52:06;;;;;;;6.35;4.07;;;;;;;7.33;59.35;100212.47;5052430;28;20344;-57
2022/10/21 06:54:32;;;;;;;6.93;4.15;;;;;;;7.85;57.77;100212.84;5033356;28;20430;-60
2022/10/21 06:56:57;;;;;;;8.57;4.30;;;;;;;8.28;56.59;100208.41;5032240;28;20072;-63
2022/10/21 06:59:23;;;;;;;6.43;4.20;;;;;;;8.56;55.70;100206.63;5041509;28;20049;-62
2022/10/21 07:01:48;;;;;;;7.28;3.83;;;;;;;8.66;54.50;100205.03;5051091;28;20021;-60
2022/10/21 07:04:14;;;;;;;5.63;3.70;;;;;;;8.59;54.74;100206.41;5051667;28;20052;-60
2022/10/21 07:06:39;;;;;;;10.98;4.43;;;;;;;8.44;55.60;100210.91;5037879;28;20079;-60
2022/10/21 07:09:06;;;;;;;8.88;4.50;;;;;;;8.34;55.79;100205.31;5031626;28;20343;-61
2022/10/21 07:11:31;;;;;;;8.02;4.60;;;;;;;8.13;56.15;100162.25;5032914;28;20464;-63
2022/10/21 07:13:59;;;;;;;10.23;4.35;;;;;;;8.32;55.58;100193.91;5036438;28;20068;-60
2022/10/21 07:16:30;;;;;;;8.48;4.68;;;;;;;8.30;55.96;100193.16;5031119;28;20068;-60
2022/10/21 07:18:56;;;;;;;9.07;4.22;;;;;;;8.29;56.17;100194.09;5035864;28;20111;-61
2022/10/21 07:21:24;;;;;;;7.90;4.18;;;;;;;8.31;55.83;100197.53;5035794;28;20436;-61
2022/10/21 07:23:51;;;;;;;7.95;4.78;;;;;;;8.35;55.89;100200.84;5049625;28;20434;-60
2022/10/21 07:26:18;;;;;;;11.93;4.45;;;;;;;8.40;55.57;100190.72;5055628;28;20025;-61
2022/10/21 07:28:46;;;;;;;13.38;4.90;;;;;;;8.53;55.44;100191.66;5047733;28;20033;-60
2022/10/21 07:31:13;;;;;;;10.07;5.05;;;;;;;8.64;55.28;100198.09;5034746;28;20051;-61
2022/10/21 07:33:39;;;;;;;11.60;4.35;;;;;;;8.68;54.59;100192.47;5035481;28;20029;-64
2022/10/21 07:36:08;;;;;;;14.75;4.88;;;;;;;8.71;54.36;100202.94;5044141;28;20021;-62
2022/10/21 07:38:33;;;;;;;6.53;4.47;;;;;;;8.74;54.59;100197.38;5054919;28;20360;-62
2022/10/21 07:40:59;;;;;;;8.80;4.72;;;;;;;8.77;54.64;100198.97;5055241;28;20076;-60
2022/10/21 07:43:25;;;;;;;5.43;4.32;;;;;;;8.92;53.90;100198.91;5054929;28;20037;-61
2022/10/21 07:45:51;;;;;;;8.23;5.07;;;;;;;8.98;53.57;100194.00;5054923;28;20036;-60
2022/10/21 07:48:16;;;;;;;8.55;4.53;;;;;;;9.08;53.06;100196.03;5055184;28;20415;-57
2022/10/21 07:50:42;;;;;;;12.98;5.28;;;;;;;9.15;53.27;100213.34;5054013;28;20116;-59
2022/10/21 07:53:07;;;;;;;9.73;4.70;;;;;;;9.11;53.58;100215.41;5054865;28;20029;-62
2022/10/21 07:55:32;;;;;;;8.35;4.90;;;;;;;8.99;53.53;100203.75;5055205;28;20409;-61
2022/10/21 07:57:58;;;;;;;8.88;4.68;;;;;;;9.00;53.30;100220.59;5054838;28;20036;-60
2022/10/21 08:00:24;;;;;;;9.65;4.70;;;;;;;8.95;53.95;100217.41;5054685;28;20082;-60
2022/10/21 08:02:54;;;;;;;9.05;4.97;;;;;;;8.96;53.99;100217.31;5054747;28;20455;-60
2022/10/21 08:05:20;;;;;;;7.63;4.43;;;;;;;8.89;53.63;100224.00;5054699;28;20052;-60
2022/10/21 08:07:46;;;;;;;9.88;5.13;;;;;;;8.88;53.76;100212.47;5070483;28;20076;-61
2022/10/21 08:10:11;;;;;;;10.13;5.28;;;;;;;8.76;53.82;100195.47;5054434;28;20119;-60
2022/10/21 08:12:37;;;;;;;10.57;5.10;;;;;;;8.81;54.13;100221.00;5055063;28;20025;-60
2022/10/21 08:15:03;;;;;;;11.63;5.00;;;;;;;8.58;54.46;100194.88;5070459;28;20032;-61
2022/10/21 08:17:29;;;;;;;8.30;5.28;;;;;;;8.63;54.65;100220.41;5069975;28;20325;-62
2022/10/21 08:19:55;;;;;;;6.47;4.95;;;;;;;8.43;54.67;100202.03;5054709;28;20032;-58
2022/10/21 08:22:21;;;;;;;7.95;4.90;;;;;;;8.59;55.03;100214.41;5054372;28;20021;-61
2022/10/21 08:24:46;;;;;;;7.60;5.25;;;;;;;8.57;54.91;100221.66;5054284;28;20029;-61
2022/10/21 08:27:12;;;;;;;6.95;5.03;;;;;;;8.49;55.00;100219.47;5054177;28;20095;-61
2022/10/21 08:29:37;;;;;;;6.93;5.20;;;;;;;8.40;55.48;100218.25;5053106;28;20127;-62
2022/10/21 08:32:04;;;;;;;11.30;5.13;;;;;;;8.44;55.91;100213.56;5051466;28;20435;-61
2022/10/21 08:34:29;;;;;;;7.00;4.78;;;;;;;8.50;55.67;100213.19;5035207;28;20041;-61
2022/10/21 08:36:54;;;;;;;9.50;5.28;;;;;;;8.63;55.52;100210.56;5053590;28;20372;-55
2022/10/21 08:39:20;;;;;;;10.45;5.32;;;;;;;8.75;55.21;100216.91;5046098;28;20108;-60
2022/10/21 08:41:52;;;;;;;10.70;5.68;;;;;;;8.80;55.07;100201.47;5038120;28;20045;-60
2022/10/21 08:44:26;;;;;;;11.25;5.20;;;;;;;8.87;55.71;100204.56;5051363;28;20048;-63
2022/10/21 08:46:56;;;;;;;9.40;5.38;;;;;;;8.96;55.33;100209.28;5045149;28;20040;-62
2022/10/21 08:49:33;;;;;;;8.18;5.10;;;;;;;9.08;54.55;100199.59;5030111;28;20040;-59
2022/10/21 08:52:21;;;;;;;8.07;4.85;;;;;;;9.36;55.18;100196.81;5048513;28;20103;-58
2022/10/21 08:54:54;;;;;;;7.18;5.28;;;;;;;9.49;54.00;100203.00;5058241;28;20049;-60
2022/10/21 08:57:19;;;;;;;8.95;5.05;;;;;;;9.60;53.46;100196.91;5051846;28;20560;-62
2022/10/21 08:59:45;;;;;;;7.80;5.32;;;;;;;9.68;52.92;100199.06;5050844;28;20037;-64
2022/10/21 09:02:11;;;;;;;11.30;4.88;;;;;;;9.78;52.97;100194.75;5055292;28;20037;-63
2022/10/21 09:04:54;;;;;;;8.43;5.45;;;;;;;9.77;52.72;100193.03;5051701;28;20033;-62
2022/10/21 09:07:45;;;;;;;7.07;5.60;;;;;;;9.79;52.78;100195.63;5053232;28;20395;-62
2022/10/21 09:10:31;;;;;;;7.50;5.50;;;;;;;9.76;52.90;100202.03;5052498;28;20094;-62
2022/10/21 09:13:11;;;;;;;7.63;5.43;;;;;;;9.77;53.39;100203.72;5052295;28;20036;-59
2022/10/21 09:16:03;;;;;;;10.88;5.75;;;;;;;9.84;53.54;100204.16;5043989;28;20036;-62
2022/10/21 09:18:42;;;;;;;14.43;5.93;;;;;;;9.78;52.64;100210.78;5044687;28;20128;-61
2022/10/21 09:21:21;;;;;;;9.18;5.97;;;;;;;9.83;52.49;100202.44;5036334;28;20029;-63
2022/10/21 09:24:03;;;;;;;9.45;5.57;;;;;;;9.86;53.16;100208.41;5032931;28;20029;-62
2022/10/21 09:26:37;;;;;;;7.85;5.25;;;;;;;9.69;52.17;100208.78;5034768;28;20033;-62
2022/10/21 09:29:31;;;;;;;17.20;5.90;;;;;;;9.57;52.78;100208.66;5052485;28;20043;-61
2022/10/21 09:32:21;;;;;;;7.38;5.50;;;;;;;9.57;53.13;100205.16;5032808;28;20029;-61
2022/10/21 09:34:50;;;;;;;13.00;5.90;;;;;;;9.55;52.52;100213.28;5036059;28;20032;-62
2022/10/21 09:37:26;;;;;;;9.80;5.68;;;;;;;9.66;52.50;100217.84;5043109;28;20072;-62
2022/10/21 09:40:06;;;;;;;;;;;;;;;10.12;52.22;100212.84;5032845;28;20471;-62
2022/10/21 09:42:31;;;;;;;11.50;5.60;;;;;;;9.87;51.53;100209.28;5032645;28;20264;-62
2022/10/21 09:44:57;;;;;;;9.50;6.15;;;;;;;9.84;51.82;100210.34;5047089;28;20033;-63
2022/10/21 09:47:24;;;;;;;9.23;5.75;;;;;;;9.87;51.41;100215.47;5052201;28;20435;-62
2022/10/21 09:49:55;;;;;;;12.02;5.50;;;;;;;9.98;50.97;100211.19;5068316;28;20099;-63
2022/10/21 09:52:25;;;;;;;7.82;5.30;;;;;;;10.12;50.72;100213.69;5052105;28;20025;-58
2022/10/21 09:54:50;;;;;;;7.20;5.47;;;;;;;10.24;50.49;100221.81;5052405;28;20108;-60
2022/10/21 09:57:30;;;;;;;9.55;5.13;;;;;;;10.29;50.74;100208.94;5052319;28;20534;-60
2022/10/21 09:59:59;;;;;;;11.50;6.50;;;;;;;10.26;50.07;100220.75;5052165;28;20037;-62
2022/10/21 10:02:34;;;;;;;7.57;5.93;;;;;;;10.03;50.75;100209.91;5052426;28;20035;-61
2022/10/21 10:04:59;;;;;;;16.10;7.28;;;;;;;9.82;51.25;100206.09;5052238;28;20052;-61
2022/10/21 10:07:24;;;;;;;8.70;6.45;;;;;;;9.70;51.75;100202.47;5052293;28;20431;-62
2022/10/21 10:09:50;;;;;;;11.55;6.93;;;;;;;9.54;51.92;100171.47;5052077;28;20188;-59
2022/10/21 10:12:21;;;;;;;12.27;7.00;;;;;;;9.82;51.59;100196.22;5051717;28;20124;-60
2022/10/21 10:14:47;;;;;;;11.80;7.43;;;;;;;9.85;51.43;100195.16;5052244;28;20398;-63
2022/10/21 10:17:38;;;;;;;11.68;7.20;;;;;;;10.04;51.28;100200.03;5051998;28;20048;-62
2022/10/21 10:20:04;;;;;;;9.13;6.35;;;;;;;9.90;50.76;100193.00;5052455;28;20039;-61
2022/10/21 10:22:36;;;;;;;8.27;5.97;;;;;;;9.89;51.25;100197.53;5051256;28;20033;-59
2022/10/21 10:25:15;;;;;;;10.43;6.97;;;;;;;10.03;51.54;100191.16;5052530;28;20051;-62
2022/10/21 10:27:52;;;;;;;10.82;6.55;;;;;;;9.91;51.00;100168.84;5052532;28;20064;-63
2022/10/21 10:30:19;;;;;;;9.63;6.70;;;;;;;10.05;50.90;100197.25;5051976;28;20029;-62
2022/10/21 10:32:46;;;;;;;10.65;6.45;;;;;;;10.09;50.51;100181.81;5052458;28;20044;-63
2022/10/21 10:35:23;;;;;;;11.18;7.00;;;;;;;10.23;50.43;100185.31;5052289;28;20161;-62
2022/10/21 10:37:50;;;;;;;9.52;6.25;;;;;;;10.22;49.80;100183.63;5051899;28;20055;-62
2022/10/21 10:40:20;;;;;;;9.35;6.53;;;;;;;10.34;49.67;100193.41;5051254;28;20040;-60
2022/10/21 10:42:46;;;;;;;8.82;5.97;;;;;;;10.44;49.11;100185.56;5052645;28;20049;-59
2022/10/21 10:45:15;;;;;;;11.25;6.07;;;;;;;10.54;49.18;100175.03;5052789;28;20128;-65
2022/10/21 10:47:46;;;;;;;5.75;4.75;;;;;;;10.48;48.92;100155.78;5052683;28;20051;-59
2022/10/21 10:50:36;;;;;;;9.25;5.13;;;;;;;10.67;49.52;100178.50;5052879;28;20415;-61
2022/10/21 10:53:31;;;;;;;8.85;5.15;;;;;;;10.67;49.76;100169.59;5055650;28;20764;-59
2022/10/21 10:56:22;;;;;;;10.13;4.97;;;;;;;10.51;49.94;100167.25;5055119;28;20486;-58
2022/10/21 10:59:17;;;;;;;7.38;4.47;;;;;;;10.37;50.39;100171.78;5038751;28;20167;-59
2022/10/21 11:02:07;;;;;;;12.20;4.70;;;;;;;10.22;51.07;100171.06;5041084;28;20048;-61
2022/10/21 11:04:59;;;;;;;10.50;4.63;;;;;;;9.88;51.41;100153.00;5056330;28;20094;-59
2022/10/21 11:07:30;;;;;;;8.40;4.88;;;;;;;9.90;51.69;100172.47;5055804;28;20087;-60
2022/10/21 11:10:03;;;;;;;8.13;4.70;;;;;;;9.85;52.12;100168.44;5055694;28;20051;-60
2022/10/21 11:12:30;;;;;;;8.48;5.05;;;;;;;9.76;52.31;100185.97;5056074;28;20057;-61
2022/10/21 11:14:58;;;;;;;8.82;4.47;;;;;;;9.59;53.08;100181.84;5055864;28;20029;-59
2022/10/21 11:17:43;;;;;;;6.15;5.05;;;;;;;9.56;53.78;100180.22;5055939;28;20037;-58
2022/10/21 11:20:33;;;;;;;6.32;4.25;;;;;;;9.52;53.69;100170.72;5056074;28;20100;-55
2022/10/21 11:23:21;;;;;;;7.07;4.40;;;;;;;9.45;53.37;100180.16;5056051;28;20040;-58
2022/10/21 11:25:57;;;;;;;8.52;4.38;;;;;;;9.45;53.67;100172.13;5054967;28;20060;-60
2022/10/21 11:28:54;;;;;;;8.38;4.78;;;;;;;9.39;53.65;100153.81;5055609;28;20119;-62
2022/10/21 11:31:33;;;;;;;5.82;4.38;;;;;;;9.40;53.70;100171.56;5054801;28;20123;-59
2022/10/21 11:34:06;;;;;;;7.60;4.95;;;;;;;9.35;53.78;100166.56;5055452;28;20028;-56
2022/10/21 11:36:39;;;;;;;7.40;5.20;;;;;;;9.17;53.60;100132.16;5055488;28;20044;-62
2022/10/21 11:39:29;;;;;;;7.57;5.15;;;;;;;9.42;53.87;100156.31;5054342;28;20134;-61
2022/10/21 11:42:09;;;;;;;7.72;4.43;;;;;;;9.42;53.54;100150.97;5054944;28;20045;-60
2022/10/21 11:44:53;;;;;;;8.32;4.80;;;;;;;9.37;53.62;100153.09;5055373;28;20094;-59